Garrettsville, Ohio
Current Conditions -  °F | °C
As of 2:21 AM on Sunday 23 Nov 2014 (Local Time) from KPOV Reporting Station
Overcast Overcast  
Wind Chill: 47°   Ceiling: 3900
Heat Index: 47°   Visibility: 10mi
Dew Point: 29°   Wind: 0mph
Humidity: 51%   Direction: NA
Pressure: 30.04"   Gusts: NA
Location:  41.28°N, 81.1°W
Report Text: KPOV 230721Z AUTO 00000KT 10SM OVC039 08/M01 A3004 RMK AO2 T00821014
Loading
Personal Weather Stations






























Interactive Weather Map New forecast layout! Learn more

10-Day Weather Forecast

Advertisements
Track Severe Weather on mobile